Wilmington, OH

7:03 AM EDT on May 29, 2017 (GMT -0400)
Truesdell St | | Change Station
Active Advisory: Special Statement

Elev 1023 ft 39.44 °N, 83.83 °W | Updated 18 seconds ago

Overcast
Overcast
61.7 °F
Feels Like 61.7 °F
N
3.0
Wind Variable Wind from NW

Today
High -- | Low -- °F
--% Chance of Precip.
Yesterday
High -- | Low -- °F
Precip. -- in
Pressure 29.90 in
Visibility 3.0 miles
Clouds Overcast 400 ft
Dew Point 61 °F
Humidity 98%
Rainfall 0.00 in
Snow Depth Not available.
6:11 AM 8:54 PM
Waxing Crescent, 19% visible
METAR KILN 291054Z AUTO 25007KT 3SM BR OVC004 16/16 A2991 RMK AO2 SLP125 T01610161
Pressure 29.90 in
Visibility 3.0 miles
Clouds Overcast 400 ft
Dew Point 61 °F
Humidity 98%
Rainfall 0.00 in
Snow Depth Not available.
6:11 AM 8:54 PM
Waxing Crescent, 19% visible
METAR KILN 291054Z AUTO 25007KT 3SM BR OVC004 16/16 A2991 RMK AO2 SLP125 T01610161

Get Your Daily Forecast Email!

Thanks for signing up!

Be on the lookout for a verification email in your inbox.

You'll start receiving severe weather alerts in your inbox..

×

10-Day Weather Forecast

Almanac

Astronomy

May. 29, 2017 Rise Set
Actual Time
Civil Twilight
Nautical Twilight
Astronomical Twilight
Moon
Length of Visible Light
Length of Day
Tomorrow will be .
, % of the Moon is Illuminated

Today's Extremes

State Highs State Lows

Community

WunderPhotos

Category 6

Welcome to Category 6. This is the collective home for Weather Underground's featured writeups by Dr. Jeff Masters (right), Bob Henson (left), Chris Burt, and other regular contributors.

Nearby

Air Quality

  Air Quality AQ Index Pollutant
Not available.

Snow Depth

Station Depth Elevation

Earthquake Activity

City Distance Mag. Time & Date
Minimum magnitude displayed is 2.5.

Coastal Water Temperatures

Place Temperature

Stations

Nearby Weather Stations

Station Location Temp. Windchill Dew Point Humidity Wind Precip. Elev Updated Type
                   

Watches & Warnings

Special Statement
Issued: 6:05 AM EDT May. 29, 2017 – National Weather Service

... Patchy dense fog expected this morning...

Fog has developed early this morning. Some of the fog may be
dense in spots, with visibilities reduced to around a quarter of a
mile. Caution is advised to those traveling this morning, as
rapid changes in visibility may occur.


Hatzos


605 am EDT Mon may 29 2017

... Patchy dense fog expected this morning...

Fog has developed early this morning. Some of the fog may be
dense in spots, with visibilities reduced to around a quarter of a
mile. Caution is advised to those traveling this morning, as
rapid changes in visibility may occur.


Hatzos